CheckWX is a tool to help pilots better visualize weather data.  It is not intended as a substitute for an official pre-flight weather briefing.

12:24:13 UTC

KHOP TAF
Campbell AAF (Fort Campbell) Airport
Fort Campbell/Hopkinsville, Kentucky, USA
TAF KHOP 220800Z 2208/2314 VRB06KT 9999 SKC QNH3008INS BECMG 2214/2215 30015G20KT 9999 SKC QNH3009INS BECMG 2223/2224 35009KT 9999 SKC QNH3013INS TX16/2221Z TN01/2208Z

Mar-22@
08:00 UTC

Mar-22 @ 08:00 UTC

Mar-22@
14:00 UTC

Mar-22 @ 14:00 UTC

TAF KHOP 220800Z 2208/2314 VRB06KT 9999 SKC QNH3008INS
Wind
  • Variable at 6 KTS
Cloud Levels
  • Clear skies

Mar-22@
14:00 UTC

Mar-22 @ 14:00 UTC

Mar-22@
23:00 UTC

Mar-22 @ 23:00 UTC

BECMG 2214/2215 30015G20KT 9999 SKC QNH3009INS

Becoming

Becoming Conditions expected by Fri, Mar 22, 2019 @ 15:00 UTC

Wind
  • 300° at 15 KTS
  • {Gusting to 20 KTS
Cloud Levels
  • Clear skies

Mar-22@
23:00 UTC

Mar-22 @ 23:00 UTC

Mar-23@
14:00 UTC

Mar-23 @ 14:00 UTC

BECMG 2223/2224 35009KT 9999 SKC QNH3013INS TX16/2221Z TN01/2208Z

Becoming

Becoming Conditions expected by Sat, Mar 23, 2019 @ 00:00 UTC

Wind
  • 350° at 9 KTS
Cloud Levels
  • Clear skies